Time;durP1;ratioP1;P1;durP2;ratioP2;P2;SDS_P1;SDS_P2;PMS_P1;PMS_P2;Temp;Humidity;BMP_temperature;BMP_pressure;BME280_temperature;BME280_humidity;BME280_pressure;Samples;Min_cycle;Max_cycle;Signal;HPM_P1;HPM_P2
2021/12/23 00:01:34;;;;;;;46.33;20.88;;;;;;;-1.87;82.89;101488.31;5017840;28;20025;-78
2021/12/23 00:04:00;;;;;;;54.92;21.55;;;;;;;-2.02;83.40;101496.50;5022991;28;20503;-79
2021/12/23 00:06:26;;;;;;;46.20;22.30;;;;;;;-1.97;83.16;101500.53;5025271;28;20043;-78
2021/12/23 00:08:51;;;;;;;50.50;21.88;;;;;;;-2.00;83.19;101497.28;5025971;28;20415;-78
2021/12/23 00:11:17;;;;;;;43.67;20.92;;;;;;;-1.93;83.21;101500.44;5028516;28;20128;-78
2021/12/23 00:13:58;;;;;;;45.60;21.33;;;;;;;-1.89;82.58;101487.53;5023722;28;20095;-78
2021/12/23 00:16:40;;;;;;;46.97;21.45;;;;;;;-1.93;82.65;101480.91;5017306;28;20694;-74
2021/12/23 00:19:16;;;;;;;49.43;22.03;;;;;;;-1.92;82.41;101476.66;5039671;28;20519;-78
2021/12/23 00:24:26;;;;;;;47.83;21.13;;;;;;;-1.89;82.42;101451.94;5025042;28;20041;-76
2021/12/23 00:26:51;;;;;;;47.50;21.30;;;;;;;-1.84;82.21;101437.34;5024002;28;20084;-75
2021/12/23 00:29:17;;;;;;;51.72;22.65;;;;;;;-1.98;82.63;101440.44;5039141;28;21841;-79
2021/12/23 00:31:42;;;;;;;47.15;21.85;;;;;;;-1.92;82.83;101438.53;5018783;28;20094;-76
2021/12/23 00:34:10;;;;;;;51.58;22.88;;;;;;;-1.93;82.54;101432.63;5025019;28;20037;-77
2021/12/23 00:36:36;;;;;;;47.38;20.75;;;;;;;-1.88;82.42;101429.91;5026574;28;20045;-78
2021/12/23 00:39:02;;;;;;;45.15;20.80;;;;;;;-1.87;82.08;101429.81;5024971;28;20049;-77
2021/12/23 00:41:30;;;;;;;43.47;20.63;;;;;;;-1.85;81.89;101420.41;5025851;28;20048;-77
2021/12/23 00:43:57;;;;;;;44.53;21.27;;;;;;;-1.86;82.24;101423.03;5020147;28;20040;-76
2021/12/23 00:46:22;;;;;;;46.05;21.05;;;;;;;-1.92;82.32;101411.41;5022876;28;20049;-78
2021/12/23 00:48:48;;;;;;;50.45;23.00;;;;;;;-1.89;82.04;101401.09;5027215;28;20045;-76
2021/12/23 00:51:14;;;;;;;47.88;22.38;;;;;;;-1.93;82.40;101401.28;5021451;28;20037;-78
2021/12/23 00:53:40;;;;;;;45.85;20.75;;;;;;;-1.90;82.43;101396.91;5024901;28;20077;-78
2021/12/23 00:56:09;;;;;;;50.35;21.60;;;;;;;-1.88;82.30;101389.22;5022658;28;20407;-78
2021/12/23 00:58:36;;;;;;;46.00;21.25;;;;;;;-1.89;82.72;101380.75;5038721;28;20482;-77
2021/12/23 01:01:03;;;;;;;48.65;21.33;;;;;;;-1.94;82.37;101395.38;5029517;28;20149;-78
2021/12/23 01:03:29;;;;;;;49.70;22.45;;;;;;;-1.97;82.80;101391.22;5026100;28;20539;-78
2021/12/23 01:05:56;;;;;;;44.80;21.38;;;;;;;-1.91;82.19;101374.09;5026085;28;20961;-78
2021/12/23 01:08:21;;;;;;;46.67;20.90;;;;;;;-1.90;82.37;101378.25;5008466;28;20037;-77
2021/12/23 01:10:50;;;;;;;46.05;20.98;;;;;;;-1.88;82.16;101386.69;5032270;28;20094;-78
2021/12/23 01:13:18;;;;;;;51.55;22.90;;;;;;;-1.89;82.03;101400.28;5025368;28;20612;-77
2021/12/23 01:15:59;;;;;;;51.60;22.27;;;;;;;-1.97;82.43;101398.03;5025647;28;20451;-78
2021/12/23 01:18:30;;;;;;;48.22;22.60;;;;;;;-1.91;82.06;101395.25;5030018;28;20033;-77
2021/12/23 01:21:04;;;;;;;49.13;22.50;;;;;;;-1.93;82.39;101379.22;5023180;28;20519;-78
2021/12/23 01:23:31;;;;;;;46.78;22.00;;;;;;;-1.96;82.04;101357.31;5030596;28;20583;-78
2021/12/23 01:25:57;;;;;;;54.92;22.08;;;;;;;-1.96;82.13;101359.00;5027256;28;20049;-78
2021/12/23 01:28:25;;;;;;;49.28;23.33;;;;;;;-1.97;82.40;101355.63;5009793;28;20036;-78
2021/12/23 01:30:51;;;;;;;51.10;22.45;;;;;;;-1.97;82.30;101359.91;5025313;28;20430;-78
2021/12/23 01:33:16;;;;;;;52.88;23.60;;;;;;;-1.98;82.76;101348.06;5008919;28;20099;-78
2021/12/23 01:35:44;;;;;;;53.15;24.42;;;;;;;-1.94;82.66;101349.63;5038691;28;20040;-77
2021/12/23 01:38:10;;;;;;;47.95;22.02;;;;;;;-1.92;82.49;101350.38;5031404;28;20041;-78
2021/12/23 01:40:36;;;;;;;54.67;22.73;;;;;;;-1.98;82.54;101348.06;5010555;28;20033;-78
2021/12/23 01:43:03;;;;;;;57.67;24.98;;;;;;;-1.97;82.65;101359.91;5025196;28;20078;-77
2021/12/23 01:45:31;;;;;;;46.95;21.13;;;;;;;-1.95;82.57;101363.22;5023776;28;20038;-76
2021/12/23 01:47:58;;;;;;;44.33;20.95;;;;;;;-1.96;82.85;101352.22;5023771;28;20408;-77
2021/12/23 01:50:27;;;;;;;48.30;22.58;;;;;;;-1.95;82.54;101347.97;5030429;28;20463;-76
2021/12/23 01:52:53;;;;;;;52.80;23.38;;;;;;;-2.04;82.71;101336.44;5029204;28;20183;-77
2021/12/23 01:55:19;;;;;;;50.40;22.85;;;;;;;-1.99;82.94;101326.09;5024628;28;20098;-77
2021/12/23 01:57:46;;;;;;;49.75;23.38;;;;;;;-1.97;82.57;101314.16;5005408;28;20037;-77
2021/12/23 02:00:16;;;;;;;50.95;23.17;;;;;;;-2.02;82.79;101310.97;5021253;28;20041;-76
2021/12/23 02:02:42;;;;;;;51.22;22.30;;;;;;;-1.99;82.54;101309.13;5024344;28;20484;-78
2021/12/23 02:05:09;;;;;;;53.30;22.85;;;;;;;-1.99;82.51;101305.75;5025064;28;20544;-77
2021/12/23 02:07:35;;;;;;;54.08;25.13;;;;;;;-2.05;82.80;101306.84;5007326;28;20041;-78
2021/12/23 02:10:00;;;;;;;53.15;24.02;;;;;;;-2.05;83.09;101318.72;5010811;28;20091;-79
2021/12/23 02:12:27;;;;;;;52.45;23.90;;;;;;;-2.01;82.91;101327.88;5017652;28;20392;-78
2021/12/23 02:14:53;;;;;;;56.72;23.42;;;;;;;-1.94;82.80;101316.56;5025884;28;20180;-77
2021/12/23 02:17:18;;;;;;;46.10;22.27;;;;;;;-1.90;82.88;101318.09;5009124;28;20041;-78
2021/12/23 02:19:44;;;;;;;49.10;22.77;;;;;;;-1.95;82.83;101322.53;5026579;28;20053;-78
2021/12/23 02:22:09;;;;;;;48.85;22.52;;;;;;;-1.92;82.98;101312.25;5017452;28;20036;-77
2021/12/23 02:24:36;;;;;;;56.72;22.10;;;;;;;-1.93;82.76;101319.94;5024500;28;20519;-77
2021/12/23 02:27:02;;;;;;;53.15;24.98;;;;;;;-2.05;83.75;101313.66;5023872;28;20464;-76
2021/12/23 02:29:27;;;;;;;49.47;22.95;;;;;;;-1.92;83.41;101324.13;5008931;28;20129;-78
2021/12/23 02:31:53;;;;;;;55.17;24.30;;;;;;;-1.88;82.80;101318.03;5022309;28;20034;-77
2021/12/23 02:34:20;;;;;;;53.35;24.13;;;;;;;-1.81;82.17;101312.63;5028272;28;20458;-77
2021/12/23 02:36:54;;;;;;;51.20;22.10;;;;;;;-1.84;82.58;101310.22;5025810;28;20034;-76
2021/12/23 02:39:22;;;;;;;52.75;23.42;;;;;;;-1.80;82.31;101301.56;5047240;28;20044;-76
2021/12/23 02:41:48;;;;;;;50.60;23.88;;;;;;;-1.86;82.68;101299.28;5017876;28;20032;-78
2021/12/23 02:44:14;;;;;;;54.40;23.67;;;;;;;-1.83;83.50;101303.41;5030249;28;20124;-78
2021/12/23 02:46:39;;;;;;;48.40;23.05;;;;;;;-1.78;82.91;101298.97;5026659;28;20060;-78
2021/12/23 02:49:05;;;;;;;56.00;23.58;;;;;;;-1.78;82.86;101293.88;5054218;28;20034;-78
2021/12/23 02:51:31;;;;;;;52.95;23.50;;;;;;;-1.79;83.15;101284.56;5028485;28;20567;-77
2021/12/23 02:53:56;;;;;;;51.20;24.15;;;;;;;-1.78;82.73;101291.34;5027713;28;20036;-79
2021/12/23 02:56:22;;;;;;;55.85;24.00;;;;;;;-1.80;83.00;101299.00;5017072;28;20033;-78
2021/12/23 02:58:47;;;;;;;68.97;25.17;;;;;;;-1.80;83.31;101280.41;5026642;28;20550;-78
2021/12/23 03:01:16;;;;;;;54.63;22.75;;;;;;;-1.69;83.24;101280.78;5026861;28;20053;-78
2021/12/23 03:03:43;;;;;;;52.33;22.45;;;;;;;-1.76;83.07;101287.00;5026121;28;20045;-78
2021/12/23 03:06:11;;;;;;;65.28;25.40;;;;;;;-1.83;83.12;101296.63;5029832;28;20025;-78
2021/12/23 03:08:41;;;;;;;50.97;22.48;;;;;;;-1.72;82.99;101288.53;5033057;28;20090;-78
2021/12/23 03:11:08;;;;;;;53.80;22.67;;;;;;;-1.76;83.00;101280.19;5014957;28;20521;-78
2021/12/23 03:13:35;;;;;;;52.53;24.63;;;;;;;-1.75;83.17;101278.50;5029089;28;20073;-78
2021/12/23 03:16:01;;;;;;;47.58;22.48;;;;;;;-1.79;83.16;101270.16;5033430;28;20029;-78
2021/12/23 03:18:27;;;;;;;51.35;23.20;;;;;;;-1.80;83.22;101260.88;5005257;28;20033;-78
2021/12/23 03:20:53;;;;;;;56.13;23.73;;;;;;;-1.79;83.55;101251.53;5014178;28;20069;-79
2021/12/23 03:23:19;;;;;;;50.50;23.00;;;;;;;-1.79;83.08;101261.69;5032156;28;20071;-78
2021/12/23 03:25:44;;;;;;;61.17;25.95;;;;;;;-1.82;84.01;101257.56;5031834;28;20053;-78
2021/12/23 03:28:10;;;;;;;53.88;24.35;;;;;;;-1.85;83.93;101255.16;5034116;28;20045;-79
2021/12/23 03:30:36;;;;;;;52.67;23.85;;;;;;;-1.88;83.83;101275.63;5018305;28;20041;-79
2021/12/23 03:33:03;;;;;;;59.95;26.25;;;;;;;-1.88;84.02;101280.72;5040332;28;20128;-78
2021/12/23 03:35:29;;;;;;;67.13;25.67;;;;;;;-1.89;84.81;101273.16;5040139;28;20191;-77
2021/12/23 03:37:54;;;;;;;55.95;24.52;;;;;;;-1.87;84.72;101269.66;5022610;28;20033;-78
2021/12/23 03:40:21;;;;;;;51.88;23.92;;;;;;;-1.85;84.48;101256.88;5024241;28;20026;-78
2021/12/23 03:42:47;;;;;;;55.33;25.27;;;;;;;-1.87;84.50;101248.50;5042690;28;20114;-77
2021/12/23 03:45:12;;;;;;;54.15;23.67;;;;;;;-1.88;84.05;101239.22;5033080;28;20076;-77
2021/12/23 03:47:39;;;;;;;54.88;24.20;;;;;;;-1.96;84.61;101230.22;5033676;28;20040;-78
2021/12/23 03:50:06;;;;;;;62.38;24.95;;;;;;;-1.90;84.30;101229.13;5013664;28;20044;-78
2021/12/23 03:52:32;;;;;;;58.60;24.05;;;;;;;-1.89;84.35;101228.22;5034038;28;20048;-78
2021/12/23 03:54:58;;;;;;;55.40;24.63;;;;;;;-1.94;84.70;101231.84;5050245;28;20033;-77
2021/12/23 03:57:24;;;;;;;52.65;24.55;;;;;;;-1.94;84.67;101216.59;5034673;28;20039;-78
2021/12/23 03:59:49;;;;;;;61.28;24.65;;;;;;;-1.92;84.59;101220.72;5030038;28;20080;-78
2021/12/23 04:02:15;;;;;;;51.35;24.58;;;;;;;-2.06;85.04;101244.16;5029178;28;20025;-78
2021/12/23 04:04:41;;;;;;;57.47;24.88;;;;;;;-2.15;85.92;101254.72;5041233;28;20033;-78
2021/12/23 04:07:06;;;;;;;50.95;25.25;;;;;;;-2.07;85.67;101219.66;5042605;28;20041;-77
2021/12/23 04:09:32;;;;;;;63.67;25.00;;;;;;;-2.03;85.16;101222.91;5030054;28;20056;-77
2021/12/23 04:11:57;;;;;;;55.28;24.05;;;;;;;-2.03;85.24;101216.09;5019452;28;20026;-77
2021/12/23 04:14:23;;;;;;;53.47;24.10;;;;;;;-1.94;85.27;101207.25;5050839;28;20034;-78
2021/12/23 04:16:48;;;;;;;56.85;23.77;;;;;;;-2.00;85.41;101200.72;5038759;28;20495;-78
2021/12/23 04:19:14;;;;;;;57.42;25.15;;;;;;;-2.01;85.20;101198.25;5039360;28;20094;-78
2021/12/23 04:21:41;;;;;;;52.00;23.23;;;;;;;-2.10;85.25;101209.63;5027278;28;20026;-78
2021/12/23 04:24:07;;;;;;;49.08;24.33;;;;;;;-2.01;85.51;101227.03;5053289;28;20056;-77
2021/12/23 04:26:34;;;;;;;57.10;24.92;;;;;;;-2.18;85.68;101217.56;5042763;28;20084;-78
2021/12/23 04:28:59;;;;;;;56.75;25.83;;;;;;;-2.07;85.75;101204.41;5038197;28;20048;-78
2021/12/23 04:31:25;;;;;;;48.33;23.17;;;;;;;-2.13;85.80;101202.09;5031410;28;20063;-77
2021/12/23 04:33:52;;;;;;;52.78;24.30;;;;;;;-2.18;86.21;101209.94;5036271;28;20040;-76
2021/12/23 04:36:18;;;;;;;65.22;26.23;;;;;;;-2.23;86.72;101205.94;5030971;28;20033;-78
2021/12/23 04:38:45;;;;;;;49.40;23.60;;;;;;;-2.03;86.10;101192.41;5033477;28;20041;-78
2021/12/23 04:41:11;;;;;;;55.80;25.83;;;;;;;-2.08;86.24;101189.22;5031117;28;20061;-78
2021/12/23 04:43:37;;;;;;;49.22;23.88;;;;;;;-2.07;86.07;101175.59;5035498;28;20058;-76
2021/12/23 04:46:03;;;;;;;57.05;24.70;;;;;;;-2.07;86.15;101168.81;5038061;28;20859;-77
2021/12/23 04:48:29;;;;;;;53.40;24.67;;;;;;;-2.10;86.30;101161.31;5035661;28;20052;-77
2021/12/23 04:50:54;;;;;;;52.45;24.88;;;;;;;-2.11;86.33;101148.69;5035778;28;20029;-77
2021/12/23 04:53:20;;;;;;;55.15;24.33;;;;;;;-2.15;86.29;101158.16;5028090;28;20064;-78
2021/12/23 04:55:46;;;;;;;56.38;25.95;;;;;;;-2.19;86.61;101170.16;5014246;28;20042;-77
2021/12/23 04:58:11;;;;;;;54.08;24.83;;;;;;;-2.26;86.97;101167.94;5038795;28;20063;-78
2021/12/23 05:00:37;;;;;;;50.10;24.45;;;;;;;-2.21;87.00;101169.41;5039280;28;20032;-78
2021/12/23 05:03:03;;;;;;;58.17;24.42;;;;;;;-2.20;87.14;101176.16;5040252;28;20043;-77
2021/12/23 05:05:28;;;;;;;55.80;24.75;;;;;;;-2.12;86.68;101163.09;5023559;28;20483;-77
2021/12/23 05:07:54;;;;;;;60.42;25.33;;;;;;;-2.13;86.62;101156.38;5029842;28;20095;-78
2021/12/23 05:10:20;;;;;;;58.45;25.27;;;;;;;-2.17;86.30;101139.59;5014094;28;20036;-77
2021/12/23 05:12:47;;;;;;;58.33;25.70;;;;;;;-2.14;86.72;101120.88;5030745;28;20039;-78
2021/12/23 05:15:18;;;;;;;57.90;25.17;;;;;;;-2.12;86.92;101112.28;5013852;28;20042;-77
2021/12/23 05:17:44;;;;;;;53.78;24.13;;;;;;;-2.14;87.19;101124.22;5019021;28;20395;-77
2021/12/23 05:20:12;;;;;;;56.25;26.08;;;;;;;-2.10;86.86;101130.81;5030470;28;20041;-78
2021/12/23 05:22:38;;;;;;;62.83;25.77;;;;;;;-2.13;86.93;101132.69;5033387;28;20033;-78
2021/12/23 05:25:06;;;;;;;53.30;23.73;;;;;;;-2.11;87.15;101125.81;5045712;28;20053;-78
2021/12/23 05:27:31;;;;;;;54.92;25.60;;;;;;;-2.12;87.21;101121.63;5030309;28;20041;-78
2021/12/23 05:29:57;;;;;;;57.35;25.55;;;;;;;-2.14;87.64;101111.53;5044727;28;20043;-78
2021/12/23 05:32:23;;;;;;;56.92;25.73;;;;;;;-2.09;87.15;101108.78;5009595;28;20037;-78
2021/12/23 05:34:49;;;;;;;59.58;26.15;;;;;;;-2.14;87.09;101103.91;5029971;28;20022;-76
2021/12/23 05:37:14;;;;;;;57.88;25.15;;;;;;;-2.08;87.31;101107.91;5010695;28;20384;-78
2021/12/23 05:39:40;;;;;;;59.03;27.02;;;;;;;-2.06;87.20;101127.25;5042411;28;20542;-78
2021/12/23 05:42:05;;;;;;;58.47;25.77;;;;;;;-2.05;87.20;101123.84;5035016;28;20064;-77
2021/12/23 05:44:31;;;;;;;60.65;27.13;;;;;;;-2.08;87.14;101105.34;5016307;28;20036;-78
2021/12/23 05:46:56;;;;;;;56.55;25.52;;;;;;;-2.00;87.11;101091.44;5012797;28;20438;-78
2021/12/23 05:49:22;;;;;;;62.97;26.48;;;;;;;-1.93;86.32;101084.34;5042193;28;20029;-77
2021/12/23 05:51:47;;;;;;;56.60;26.27;;;;;;;-1.93;86.41;101079.25;5013925;28;20480;-76
2021/12/23 05:54:13;;;;;;;58.95;26.10;;;;;;;-2.01;86.61;101081.31;5032926;28;20595;-77
2021/12/23 05:56:38;;;;;;;65.35;26.17;;;;;;;-2.02;86.87;101085.56;5014455;28;20040;-77
2021/12/23 05:59:04;;;;;;;61.20;25.58;;;;;;;-1.97;86.85;101086.19;5035317;28;20033;-76
2021/12/23 06:01:31;;;;;;;60.70;27.45;;;;;;;-1.98;86.73;101081.16;5027095;28;20036;-77
2021/12/23 06:03:56;;;;;;;62.95;27.10;;;;;;;-1.92;86.65;101080.06;5031683;28;20033;-78
2021/12/23 06:06:22;;;;;;;61.17;27.52;;;;;;;-1.97;86.69;101075.22;5042967;28;20344;-78
2021/12/23 06:08:47;;;;;;;64.50;25.83;;;;;;;-1.94;87.21;101072.53;5030230;28;20057;-78
2021/12/23 06:11:13;;;;;;;60.47;26.67;;;;;;;-1.92;87.05;101059.72;5037324;28;20048;-78
2021/12/23 06:13:38;;;;;;;59.13;26.50;;;;;;;-1.91;86.98;101069.03;5037174;28;20042;-78
2021/12/23 06:16:03;;;;;;;64.05;27.48;;;;;;;-1.91;87.11;101077.47;5036933;28;20038;-78
2021/12/23 06:18:29;;;;;;;55.13;25.25;;;;;;;-1.85;86.85;101069.56;5043931;28;20044;-78
2021/12/23 06:20:55;;;;;;;55.45;26.17;;;;;;;-1.86;86.98;101064.56;5033637;28;20026;-77
2021/12/23 06:23:20;;;;;;;60.85;26.70;;;;;;;-1.88;86.71;101067.16;5038843;28;20061;-78
2021/12/23 06:25:46;;;;;;;60.70;27.83;;;;;;;-1.92;86.75;101062.28;5034212;28;20056;-79
2021/12/23 06:28:11;;;;;;;58.88;26.40;;;;;;;-1.93;86.99;101061.47;5033579;28;20118;-79
2021/12/23 06:30:37;;;;;;;64.05;26.42;;;;;;;-1.86;87.00;101055.22;5034708;28;20526;-78
2021/12/23 06:33:02;;;;;;;62.47;26.05;;;;;;;-1.91;87.07;101064.75;5024771;28;20533;-79
2021/12/23 06:35:30;;;;;;;61.10;26.17;;;;;;;-1.88;87.01;101077.34;5034329;28;20076;-79
2021/12/23 06:37:56;;;;;;;65.10;27.70;;;;;;;-1.98;87.43;101074.38;5043109;28;20120;-78
2021/12/23 06:40:22;;;;;;;58.67;27.00;;;;;;;-1.99;87.96;101071.91;5023944;28;20037;-79
2021/12/23 06:42:48;;;;;;;59.17;26.38;;;;;;;-2.01;88.06;101078.78;5038748;28;20060;-79
2021/12/23 06:45:15;;;;;;;56.90;26.67;;;;;;;-1.82;87.34;101056.72;5020104;28;20046;-79
2021/12/23 06:47:42;;;;;;;60.53;26.77;;;;;;;-1.85;87.47;101054.28;5031464;28;20141;-79
2021/12/23 06:50:09;;;;;;;62.30;26.33;;;;;;;-1.67;86.69;101057.72;5019921;28;20061;-77
2021/12/23 06:52:36;;;;;;;60.15;27.15;;;;;;;-1.71;86.90;101055.38;5032942;28;20041;-79
2021/12/23 06:55:04;;;;;;;58.00;26.33;;;;;;;-1.78;86.78;101057.41;5029226;28;20040;-77
2021/12/23 06:57:30;;;;;;;56.40;26.40;;;;;;;-1.88;87.25;101074.78;5027421;28;20118;-79
2021/12/23 06:59:55;;;;;;;66.55;26.75;;;;;;;-1.90;87.56;101070.66;5023538;28;20037;-79
2021/12/23 07:02:21;;;;;;;61.10;27.05;;;;;;;-1.69;86.99;101056.97;5012434;28;20030;-78
2021/12/23 07:04:46;;;;;;;59.10;25.92;;;;;;;-1.62;86.57;101049.88;5037160;28;20037;-78
2021/12/23 07:07:19;;;;;;;55.05;25.80;;;;;;;-1.67;86.78;101039.94;5029770;28;20037;-79
2021/12/23 07:09:45;;;;;;;60.60;26.52;;;;;;;-1.77;86.51;101041.25;5028320;28;20095;-79
2021/12/23 07:12:12;;;;;;;59.22;26.38;;;;;;;-1.68;87.23;101050.97;5035130;28;20049;-79
2021/12/23 07:14:39;;;;;;;55.63;27.10;;;;;;;-1.69;86.80;101043.44;5029178;28;20415;-79
2021/12/23 07:17:06;;;;;;;59.17;25.17;;;;;;;-1.70;86.80;101042.59;5029943;28;20041;-79
2021/12/23 07:19:32;;;;;;;58.00;25.90;;;;;;;-1.69;86.67;101051.09;5029804;28;20044;-79
2021/12/23 07:21:57;;;;;;;61.83;27.85;;;;;;;-1.66;87.17;101044.09;5014768;28;20034;-79
2021/12/23 07:24:23;;;;;;;61.55;26.42;;;;;;;-1.65;86.96;101042.41;5027717;28;20025;-79
2021/12/23 07:26:49;;;;;;;61.72;26.23;;;;;;;-1.70;86.81;101047.69;5031037;28;20051;-79
2021/12/23 07:29:15;;;;;;;59.42;27.52;;;;;;;-1.65;86.81;101032.22;5015236;28;20480;-79
2021/12/23 07:31:40;;;;;;;57.88;26.67;;;;;;;-1.58;86.79;101036.16;5042821;28;20034;-80
2021/12/23 07:34:06;;;;;;;65.85;26.27;;;;;;;-1.59;86.96;101040.38;5014359;28;20864;-79
2021/12/23 07:36:32;;;;;;;63.67;27.35;;;;;;;-1.60;86.82;101033.66;5027670;28;20135;-79
2021/12/23 07:38:58;;;;;;;58.25;26.10;;;;;;;-1.60;86.96;101022.66;5032812;28;20096;-79
2021/12/23 07:41:26;;;;;;;58.72;27.15;;;;;;;-1.53;87.00;101025.75;5044464;28;20037;-79
2021/12/23 07:46:24;;;;;;;62.30;28.15;;;;;;;-1.63;87.19;101030.44;5027417;28;20051;-79
2021/12/23 07:48:50;;;;;;;61.40;28.00;;;;;;;-1.72;87.31;101039.31;5045130;28;20087;-80
2021/12/23 07:51:15;;;;;;;62.42;27.40;;;;;;;-1.62;87.47;101048.19;5031470;28;20080;-79
2021/12/23 07:53:41;;;;;;;68.15;27.88;;;;;;;-1.63;88.12;101038.06;5017132;28;20042;-80
2021/12/23 07:56:06;;;;;;;60.70;27.92;;;;;;;-1.65;87.40;101032.22;5028833;28;20034;-79
2021/12/23 07:58:32;;;;;;;66.68;28.23;;;;;;;-1.65;87.56;101027.16;5034255;28;20045;-80
2021/12/23 08:00:57;;;;;;;62.10;27.45;;;;;;;-1.55;87.80;101015.63;5009126;28;20136;-79
2021/12/23 08:03:23;;;;;;;56.72;25.92;;;;;;;-1.62;87.76;101021.91;5009901;28;20037;-81
2021/12/23 08:05:49;;;;;;;57.33;26.83;;;;;;;-1.55;87.65;101022.44;5024645;28;20032;-80
2021/12/23 08:08:15;;;;;;;58.67;26.27;;;;;;;-1.51;87.39;101022.22;5014850;28;20381;-80
2021/12/23 08:10:40;;;;;;;60.10;26.75;;;;;;;-1.42;87.28;101024.31;5009863;28;20052;-80
2021/12/23 08:13:07;;;;;;;61.40;27.65;;;;;;;-1.47;87.17;101022.91;5027141;28;20491;-80
2021/12/23 08:15:33;;;;;;;55.25;25.58;;;;;;;-1.29;86.57;101024.56;5011361;28;20064;-79
2021/12/23 08:17:58;;;;;;;63.45;27.27;;;;;;;-1.33;86.38;101022.25;5010500;28;20392;-80
2021/12/23 08:20:24;;;;;;;54.05;25.17;;;;;;;-1.33;86.42;101018.00;5012470;28;20037;-79
2021/12/23 08:22:49;;;;;;;62.08;26.88;;;;;;;-1.28;86.62;101016.06;5010165;28;20041;-80
2021/12/23 08:25:16;;;;;;;55.78;24.75;;;;;;;-1.21;86.53;101016.56;5022732;28;20037;-79
2021/12/23 08:27:42;;;;;;;59.95;26.73;;;;;;;-1.19;86.75;101013.06;5028715;28;20029;-80
2021/12/23 08:30:10;;;;;;;60.97;26.83;;;;;;;-1.17;86.59;101005.31;5014175;28;20036;-79
2021/12/23 08:32:37;;;;;;;57.53;26.52;;;;;;;-1.20;86.14;101013.13;5034159;28;20037;-80
2021/12/23 08:35:03;;;;;;;65.32;26.67;;;;;;;-1.16;86.31;101001.09;5022133;28;20029;-79
2021/12/23 08:37:29;;;;;;;64.75;27.40;;;;;;;-1.22;86.43;100997.13;5015623;28;20040;-81
2021/12/23 08:39:54;;;;;;;63.67;27.83;;;;;;;-1.16;86.25;100996.81;5015380;28;20037;-80
2021/12/23 08:42:20;;;;;;;59.95;27.25;;;;;;;-1.12;86.42;100997.47;5015600;28;20488;-78
2021/12/23 08:44:46;;;;;;;59.05;26.02;;;;;;;-1.09;86.04;100997.31;5028783;28;20041;-80
2021/12/23 08:47:13;;;;;;;58.22;25.60;;;;;;;-1.10;86.03;100993.13;5015664;28;20467;-80
2021/12/23 08:49:43;;;;;;;59.83;25.17;;;;;;;-1.03;85.74;100997.84;5014882;28;20064;-80
2021/12/23 08:52:09;;;;;;;58.70;24.70;;;;;;;-1.03;86.07;100992.75;5024907;28;20048;-80
2021/12/23 08:54:35;;;;;;;56.65;26.17;;;;;;;-1.05;85.76;100992.00;5010662;28;20045;-80
2021/12/23 08:57:00;;;;;;;61.53;27.75;;;;;;;-1.01;85.92;100990.94;5009434;28;20108;-81
2021/12/23 08:59:26;;;;;;;63.70;27.98;;;;;;;-1.06;86.27;101000.53;5033922;28;20095;-81
2021/12/23 09:01:52;;;;;;;64.10;26.75;;;;;;;-1.11;86.41;100996.56;5017126;28;20033;-81
2021/12/23 09:04:18;;;;;;;59.65;26.98;;;;;;;-1.05;86.57;101007.28;5018121;28;20041;-81
2021/12/23 09:06:44;;;;;;;64.85;26.98;;;;;;;-0.96;86.18;100990.75;5011996;28;20120;-81
2021/12/23 09:09:09;;;;;;;58.83;26.23;;;;;;;-0.94;85.68;100998.28;5027401;28;20053;-81
2021/12/23 09:11:35;;;;;;;60.75;27.27;;;;;;;-0.93;85.81;101003.28;5026455;28;20091;-81
2021/12/23 09:14:00;;;;;;;63.15;28.00;;;;;;;-0.92;85.84;100999.00;5017020;28;20033;-81
2021/12/23 09:16:26;;;;;;;60.33;26.27;;;;;;;-0.87;85.94;100987.69;5024961;28;20311;-81
2021/12/23 09:18:52;;;;;;;58.20;26.77;;;;;;;-0.86;85.79;100986.00;5024433;28;20091;-81
2021/12/23 09:21:17;;;;;;;62.88;25.95;;;;;;;-0.90;86.05;100987.06;5030947;28;20029;-80
2021/12/23 09:23:43;;;;;;;59.90;26.63;;;;;;;-0.88;85.96;100980.16;5010590;28;20566;-80
2021/12/23 09:26:10;;;;;;;58.33;26.08;;;;;;;-0.90;86.52;100974.31;5025867;28;20056;-81
2021/12/23 09:33:55;;;;;;;58.80;26.65;;;;;;;-0.83;86.10;100979.03;5023178;28;20041;-81
2021/12/23 09:36:21;;;;;;;57.33;26.63;;;;;;;-0.82;85.97;100980.66;5029423;28;20052;-80
2021/12/23 09:38:46;;;;;;;55.38;27.17;;;;;;;-0.61;85.31;100967.72;5006329;28;20282;-80
2021/12/23 09:41:16;;;;;;;60.10;26.75;;;;;;;-0.53;85.21;100968.13;5008307;28;20029;-80
2021/12/23 09:43:42;;;;;;;55.97;25.05;;;;;;;-0.59;85.47;100971.00;5027188;28;20458;-80
2021/12/23 09:46:10;;;;;;;60.88;26.67;;;;;;;-0.47;84.57;100964.44;5029036;28;20131;-81
2021/12/23 09:48:39;;;;;;;55.90;26.55;;;;;;;-0.59;84.67;100964.19;5004724;28;20046;-80
2021/12/23 09:51:07;;;;;;;55.80;24.77;;;;;;;-0.62;85.33;100966.09;5021202;28;20459;-80
2021/12/23 09:53:34;;;;;;;70.13;30.60;;;;;;;-0.45;84.14;100957.56;5012655;28;20516;-80
2021/12/23 09:56:00;;;;;;;72.70;30.27;;;;;;;-0.50;84.42;100960.34;5014202;28;20045;-79
2021/12/23 09:58:26;;;;;;;73.95;31.05;;;;;;;-0.45;84.42;100971.13;5010754;28;20567;-79
2021/12/23 10:00:53;;;;;;;131.15;41.10;;;;;;;-0.43;84.11;100968.50;5011141;28;20480;-80
2021/12/23 10:03:21;;;;;;;117.68;39.08;;;;;;;-0.41;84.14;100954.75;5024135;28;20474;-80
2021/12/23 10:05:47;;;;;;;111.45;38.67;;;;;;;-0.34;84.11;100957.81;5028451;28;20029;-79
2021/12/23 10:08:14;;;;;;;81.50;31.20;;;;;;;-0.35;84.65;100955.34;5013382;28;20052;-79
2021/12/23 10:10:55;;;;;;;100.50;34.97;;;;;;;-0.18;82.96;100941.69;5011117;28;20201;-79
2021/12/23 10:27:02;;;;;;;90.25;34.33;;;;;;;-0.22;83.59;100941.84;5021603;28;20791;-80
2021/12/23 10:33:07;;;;;;;57.97;26.70;;;;;;;0.01;82.82;100906.63;5022261;28;20065;-82
2021/12/23 10:38:22;;;;;;;56.30;25.40;;;;;;;0.03;81.76;100881.06;5026126;28;20052;-82
2021/12/23 10:40:51;;;;;;;55.90;25.83;;;;;;;0.00;82.51;100879.50;5029972;28;20037;-82
2021/12/23 10:43:42;;;;;;;61.08;26.45;;;;;;;0.06;82.69;100873.22;5025961;28;20064;-82
2021/12/23 10:46:07;;;;;;;58.10;25.20;;;;;;;0.15;82.07;100865.91;5027413;28;20526;-82
2021/12/23 10:48:44;;;;;;;61.47;25.40;;;;;;;0.18;81.73;100873.34;5005614;28;20037;-82
2021/12/23 10:51:16;;;;;;;56.40;25.60;;;;;;;0.14;81.82;100866.78;5024813;28;20041;-83
2021/12/23 10:59:18;;;;;;;63.30;26.00;;;;;;;0.33;81.72;100853.81;5029795;28;20041;-83
2021/12/23 11:02:12;;;;;;;59.03;26.05;;;;;;;0.35;81.32;100846.88;5028208;28;20033;-82
2021/12/23 11:05:07;;;;;;;54.35;24.50;;;;;;;0.33;82.31;100850.44;5028606;28;20048;-82
2021/12/23 11:08:16;;;;;;;60.92;25.60;;;;;;;0.37;81.55;100841.69;5034580;28;20041;-82
2021/12/23 11:27:32;;;;;;;59.45;24.88;;;;;;;0.39;81.74;100817.72;5029905;28;20124;-80
2021/12/23 11:43:52;;;;;;;50.00;23.40;;;;;;;0.74;81.53;100786.75;5036970;28;20099;-80
2021/12/23 11:46:28;;;;;;;54.58;25.13;;;;;;;0.85;80.06;100778.44;5035956;28;20046;-81
2021/12/23 11:48:56;;;;;;;54.25;23.65;;;;;;;0.91;79.81;100772.94;5038604;28;20033;-81
2021/12/23 11:51:32;;;;;;;56.33;23.73;;;;;;;0.92;79.60;100772.06;5036050;28;20296;-80
2021/12/23 11:54:01;;;;;;;52.75;24.65;;;;;;;0.97;80.12;100771.75;5031133;28;20033;-79
2021/12/23 11:56:27;;;;;;;58.85;25.42;;;;;;;0.94;79.84;100770.22;5024441;28;20038;-80
2021/12/23 11:58:57;;;;;;;56.97;24.45;;;;;;;0.94;79.75;100761.72;5009183;28;20357;-79
2021/12/23 12:01:27;;;;;;;54.78;25.77;;;;;;;0.92;79.73;100763.56;5013268;28;20033;-80
2021/12/23 12:03:54;;;;;;;53.00;24.55;;;;;;;0.88;79.69;100760.34;5021475;28;20110;-79
2021/12/23 12:06:35;;;;;;;58.53;25.05;;;;;;;0.92;79.46;100753.34;5031966;28;20041;-80
2021/12/23 12:09:19;;;;;;;62.15;24.77;;;;;;;0.95;79.67;100745.50;5045725;28;20060;-80
2021/12/23 12:12:05;;;;;;;56.75;25.40;;;;;;;0.91;79.96;100746.59;5014534;28;20251;-80
2021/12/23 12:14:41;;;;;;;64.43;25.17;;;;;;;1.00;80.14;100748.59;5028248;28;20041;-80
2021/12/23 12:17:30;;;;;;;52.75;24.45;;;;;;;0.93;79.63;100752.44;5042391;28;20040;-81